sensor_id;sensor_type;location;lat;lon;timestamp;P1;durP1;ratioP1;P2;durP2;ratioP2
69621;SDS011;56841;55.964;37.674;2023-02-28T00:01:18;7.88;;;3.22;;
69621;SDS011;56841;55.964;37.674;2023-02-28T00:03:44;8.15;;;3.40;;
69621;SDS011;56841;55.964;37.674;2023-02-28T00:06:09;11.65;;;4.35;;
69621;SDS011;56841;55.964;37.674;2023-02-28T00:08:36;12.30;;;5.05;;
69621;SDS011;56841;55.964;37.674;2023-02-28T00:11:03;10.77;;;4.93;;
69621;SDS011;56841;55.964;37.674;2023-02-28T00:13:31;7.57;;;3.33;;
69621;SDS011;56841;55.964;37.674;2023-02-28T00:16:00;7.72;;;3.15;;
69621;SDS011;56841;55.964;37.674;2023-02-28T00:18:27;6.93;;;2.67;;
69621;SDS011;56841;55.964;37.674;2023-02-28T00:20:53;9.88;;;3.50;;
69621;SDS011;56841;55.964;37.674;2023-02-28T00:23:19;13.50;;;4.70;;
69621;SDS011;56841;55.964;37.674;2023-02-28T00:25:44;9.27;;;3.70;;
69621;SDS011;56841;55.964;37.674;2023-02-28T00:28:10;9.73;;;4.15;;
69621;SDS011;56841;55.964;37.674;2023-02-28T00:30:36;9.60;;;3.65;;
69621;SDS011;56841;55.964;37.674;2023-02-28T00:33:03;8.93;;;3.58;;
69621;SDS011;56841;55.964;37.674;2023-02-28T00:35:29;9.27;;;3.75;;
69621;SDS011;56841;55.964;37.674;2023-02-28T00:37:55;7.85;;;3.65;;
69621;SDS011;56841;55.964;37.674;2023-02-28T00:40:21;9.68;;;3.65;;
69621;SDS011;56841;55.964;37.674;2023-02-28T00:42:46;13.18;;;5.25;;
69621;SDS011;56841;55.964;37.674;2023-02-28T00:45:12;11.27;;;4.65;;
69621;SDS011;56841;55.964;37.674;2023-02-28T00:47:38;6.68;;;2.92;;
69621;SDS011;56841;55.964;37.674;2023-02-28T00:50:04;10.65;;;4.20;;
69621;SDS011;56841;55.964;37.674;2023-02-28T00:52:30;6.03;;;2.65;;
69621;SDS011;56841;55.964;37.674;2023-02-28T00:54:56;10.00;;;4.88;;
69621;SDS011;56841;55.964;37.674;2023-02-28T00:57:22;6.13;;;2.75;;
69621;SDS011;56841;55.964;37.674;2023-02-28T00:59:48;10.02;;;3.50;;
69621;SDS011;56841;55.964;37.674;2023-02-28T01:02:14;10.27;;;3.75;;
69621;SDS011;56841;55.964;37.674;2023-02-28T01:04:40;9.77;;;4.22;;
69621;SDS011;56841;55.964;37.674;2023-02-28T01:07:05;5.30;;;2.33;;
69621;SDS011;56841;55.964;37.674;2023-02-28T01:09:31;7.40;;;3.10;;
69621;SDS011;56841;55.964;37.674;2023-02-28T01:11:57;9.27;;;4.40;;
69621;SDS011;56841;55.964;37.674;2023-02-28T01:14:23;7.45;;;2.95;;
69621;SDS011;56841;55.964;37.674;2023-02-28T01:16:49;5.28;;;1.67;;
69621;SDS011;56841;55.964;37.674;2023-02-28T01:19:16;10.38;;;4.50;;
69621;SDS011;56841;55.964;37.674;2023-02-28T01:21:42;5.72;;;2.45;;
69621;SDS011;56841;55.964;37.674;2023-02-28T01:24:08;6.15;;;2.13;;
69621;SDS011;56841;55.964;37.674;2023-02-28T01:26:34;8.98;;;3.40;;
69621;SDS011;56841;55.964;37.674;2023-02-28T01:29:00;9.15;;;3.25;;
69621;SDS011;56841;55.964;37.674;2023-02-28T01:31:26;6.65;;;2.78;;
69621;SDS011;56841;55.964;37.674;2023-02-28T01:33:52;8.55;;;3.10;;
69621;SDS011;56841;55.964;37.674;2023-02-28T01:36:20;7.10;;;2.88;;
69621;SDS011;56841;55.964;37.674;2023-02-28T01:38:48;10.40;;;4.95;;
69621;SDS011;56841;55.964;37.674;2023-02-28T01:41:19;7.68;;;2.35;;
69621;SDS011;56841;55.964;37.674;2023-02-28T01:46:12;8.05;;;3.67;;
69621;SDS011;56841;55.964;37.674;2023-02-28T01:48:44;3.42;;;1.63;;
69621;SDS011;56841;55.964;37.674;2023-02-28T01:51:16;8.02;;;3.17;;
69621;SDS011;56841;55.964;37.674;2023-02-28T01:53:48;8.48;;;3.05;;
69621;SDS011;56841;55.964;37.674;2023-02-28T01:56:19;6.75;;;2.47;;
69621;SDS011;56841;55.964;37.674;2023-02-28T01:58:52;7.07;;;3.03;;
69621;SDS011;56841;55.964;37.674;2023-02-28T02:01:22;8.02;;;3.55;;
69621;SDS011;56841;55.964;37.674;2023-02-28T02:03:59;8.77;;;3.35;;
69621;SDS011;56841;55.964;37.674;2023-02-28T02:06:29;7.93;;;3.25;;
69621;SDS011;56841;55.964;37.674;2023-02-28T02:09:01;6.50;;;2.53;;
69621;SDS011;56841;55.964;37.674;2023-02-28T02:11:28;8.05;;;3.13;;
69621;SDS011;56841;55.964;37.674;2023-02-28T02:24:53;8.70;;;3.97;;
69621;SDS011;56841;55.964;37.674;2023-02-28T02:41:02;7.90;;;3.05;;
69621;SDS011;56841;55.964;37.674;2023-02-28T02:43:39;7.43;;;3.78;;
69621;SDS011;56841;55.964;37.674;2023-02-28T02:46:13;9.25;;;4.25;;
69621;SDS011;56841;55.964;37.674;2023-02-28T02:48:45;5.32;;;2.45;;
69621;SDS011;56841;55.964;37.674;2023-02-28T02:51:16;6.50;;;2.80;;
69621;SDS011;56841;55.964;37.674;2023-02-28T02:53:47;6.68;;;2.53;;
69621;SDS011;56841;55.964;37.674;2023-02-28T02:56:18;8.18;;;2.45;;
69621;SDS011;56841;55.964;37.674;2023-02-28T02:58:48;6.65;;;2.97;;
69621;SDS011;56841;55.964;37.674;2023-02-28T03:01:20;6.15;;;2.92;;
69621;SDS011;56841;55.964;37.674;2023-02-28T03:03:58;7.18;;;3.08;;
69621;SDS011;56841;55.964;37.674;2023-02-28T03:06:27;7.40;;;2.83;;
69621;SDS011;56841;55.964;37.674;2023-02-28T03:08:53;6.97;;;2.80;;
69621;SDS011;56841;55.964;37.674;2023-02-28T03:11:21;5.63;;;2.75;;
69621;SDS011;56841;55.964;37.674;2023-02-28T03:17:09;9.20;;;4.00;;
69621;SDS011;56841;55.964;37.674;2023-02-28T03:25:33;9.57;;;3.67;;
69621;SDS011;56841;55.964;37.674;2023-02-28T03:28:08;7.57;;;3.35;;
69621;SDS011;56841;55.964;37.674;2023-02-28T03:30:51;10.30;;;5.18;;
69621;SDS011;56841;55.964;37.674;2023-02-28T03:33:44;7.05;;;3.25;;
69621;SDS011;56841;55.964;37.674;2023-02-28T03:36:25;8.15;;;3.70;;
69621;SDS011;56841;55.964;37.674;2023-02-28T03:41:21;7.28;;;3.10;;
69621;SDS011;56841;55.964;37.674;2023-02-28T03:43:51;7.43;;;3.20;;
69621;SDS011;56841;55.964;37.674;2023-02-28T03:46:23;6.90;;;2.53;;
69621;SDS011;56841;55.964;37.674;2023-02-28T03:49:02;6.43;;;3.30;;
69621;SDS011;56841;55.964;37.674;2023-02-28T03:51:36;9.48;;;3.42;;
69621;SDS011;56841;55.964;37.674;2023-02-28T03:54:07;7.00;;;3.05;;
69621;SDS011;56841;55.964;37.674;2023-02-28T03:56:39;7.50;;;2.83;;
69621;SDS011;56841;55.964;37.674;2023-02-28T04:01:54;8.65;;;3.42;;
69621;SDS011;56841;55.964;37.674;2023-02-28T04:04:23;6.95;;;3.03;;
69621;SDS011;56841;55.964;37.674;2023-02-28T04:06:50;10.35;;;4.15;;
69621;SDS011;56841;55.964;37.674;2023-02-28T04:09:16;8.60;;;3.28;;
69621;SDS011;56841;55.964;37.674;2023-02-28T04:11:49;8.73;;;3.85;;
69621;SDS011;56841;55.964;37.674;2023-02-28T04:14:21;7.72;;;3.33;;
69621;SDS011;56841;55.964;37.674;2023-02-28T04:16:47;6.93;;;2.90;;
69621;SDS011;56841;55.964;37.674;2023-02-28T04:19:13;7.72;;;3.47;;
69621;SDS011;56841;55.964;37.674;2023-02-28T04:21:44;7.90;;;2.75;;
69621;SDS011;56841;55.964;37.674;2023-02-28T04:24:14;6.90;;;2.83;;
69621;SDS011;56841;55.964;37.674;2023-02-28T04:26:43;6.32;;;3.00;;
69621;SDS011;56841;55.964;37.674;2023-02-28T04:29:11;7.97;;;3.33;;
69621;SDS011;56841;55.964;37.674;2023-02-28T04:31:38;8.77;;;4.00;;
69621;SDS011;56841;55.964;37.674;2023-02-28T04:34:04;7.53;;;3.47;;
69621;SDS011;56841;55.964;37.674;2023-02-28T04:36:31;8.63;;;3.42;;
69621;SDS011;56841;55.964;37.674;2023-02-28T04:38:57;8.90;;;3.95;;
69621;SDS011;56841;55.964;37.674;2023-02-28T04:41:23;9.20;;;4.00;;
69621;SDS011;56841;55.964;37.674;2023-02-28T04:46:16;8.60;;;3.80;;
69621;SDS011;56841;55.964;37.674;2023-02-28T04:48:43;8.85;;;3.72;;
69621;SDS011;56841;55.964;37.674;2023-02-28T04:51:10;7.43;;;3.33;;
69621;SDS011;56841;55.964;37.674;2023-02-28T04:53:39;5.00;;;1.88;;
69621;SDS011;56841;55.964;37.674;2023-02-28T04:56:05;9.80;;;3.80;;
69621;SDS011;56841;55.964;37.674;2023-02-28T04:58:32;5.20;;;2.22;;
69621;SDS011;56841;55.964;37.674;2023-02-28T05:01:03;8.30;;;3.90;;
69621;SDS011;56841;55.964;37.674;2023-02-28T05:03:41;7.32;;;3.63;;
69621;SDS011;56841;55.964;37.674;2023-02-28T05:06:08;7.28;;;3.40;;
69621;SDS011;56841;55.964;37.674;2023-02-28T05:08:34;7.70;;;3.67;;
69621;SDS011;56841;55.964;37.674;2023-02-28T05:11:00;8.52;;;3.33;;
69621;SDS011;56841;55.964;37.674;2023-02-28T05:15:53;7.03;;;3.00;;
69621;SDS011;56841;55.964;37.674;2023-02-28T05:18:19;6.65;;;2.97;;
69621;SDS011;56841;55.964;37.674;2023-02-28T05:20:45;7.38;;;3.40;;
69621;SDS011;56841;55.964;37.674;2023-02-28T05:25:38;7.40;;;3.03;;
69621;SDS011;56841;55.964;37.674;2023-02-28T05:28:04;4.07;;;2.10;;
69621;SDS011;56841;55.964;37.674;2023-02-28T05:30:30;7.55;;;3.45;;
69621;SDS011;56841;55.964;37.674;2023-02-28T05:32:57;8.95;;;3.58;;
69621;SDS011;56841;55.964;37.674;2023-02-28T05:35:23;5.95;;;2.85;;
69621;SDS011;56841;55.964;37.674;2023-02-28T05:37:50;7.70;;;3.30;;
69621;SDS011;56841;55.964;37.674;2023-02-28T05:40:16;8.30;;;3.40;;
69621;SDS011;56841;55.964;37.674;2023-02-28T05:42:43;7.40;;;3.30;;
69621;SDS011;56841;55.964;37.674;2023-02-28T05:45:08;6.05;;;2.20;;
69621;SDS011;56841;55.964;37.674;2023-02-28T05:50:01;7.28;;;3.10;;
69621;SDS011;56841;55.964;37.674;2023-02-28T05:52:29;20.48;;;6.93;;
69621;SDS011;56841;55.964;37.674;2023-02-28T05:54:57;7.90;;;3.25;;
69621;SDS011;56841;55.964;37.674;2023-02-28T05:57:23;7.50;;;3.33;;
69621;SDS011;56841;55.964;37.674;2023-02-28T05:59:50;7.00;;;3.40;;
69621;SDS011;56841;55.964;37.674;2023-02-28T06:02:16;7.72;;;3.63;;
69621;SDS011;56841;55.964;37.674;2023-02-28T06:04:43;7.90;;;3.60;;
69621;SDS011;56841;55.964;37.674;2023-02-28T06:07:09;7.28;;;2.85;;
69621;SDS011;56841;55.964;37.674;2023-02-28T06:09:36;7.93;;;2.95;;
69621;SDS011;56841;55.964;37.674;2023-02-28T06:12:02;6.93;;;2.63;;
69621;SDS011;56841;55.964;37.674;2023-02-28T06:14:31;8.73;;;3.10;;
69621;SDS011;56841;55.964;37.674;2023-02-28T06:16:59;5.53;;;2.63;;
69621;SDS011;56841;55.964;37.674;2023-02-28T06:19:25;6.30;;;2.92;;
69621;SDS011;56841;55.964;37.674;2023-02-28T06:21:51;5.13;;;2.78;;
69621;SDS011;56841;55.964;37.674;2023-02-28T06:24:19;7.15;;;3.40;;
69621;SDS011;56841;55.964;37.674;2023-02-28T06:26:45;5.95;;;2.58;;
69621;SDS011;56841;55.964;37.674;2023-02-28T06:29:11;5.90;;;2.97;;
69621;SDS011;56841;55.964;37.674;2023-02-28T06:34:04;5.32;;;2.60;;
69621;SDS011;56841;55.964;37.674;2023-02-28T06:36:30;6.25;;;2.88;;
69621;SDS011;56841;55.964;37.674;2023-02-28T06:38:56;4.68;;;2.10;;
69621;SDS011;56841;55.964;37.674;2023-02-28T06:43:49;4.35;;;1.58;;
69621;SDS011;56841;55.964;37.674;2023-02-28T06:46:15;7.00;;;3.10;;
69621;SDS011;56841;55.964;37.674;2023-02-28T06:51:17;5.32;;;2.78;;
69621;SDS011;56841;55.964;37.674;2023-02-28T06:53:45;5.53;;;2.58;;
69621;SDS011;56841;55.964;37.674;2023-02-28T06:56:13;7.03;;;2.85;;
69621;SDS011;56841;55.964;37.674;2023-02-28T06:58:41;5.80;;;2.58;;
69621;SDS011;56841;55.964;37.674;2023-02-28T07:01:07;7.82;;;2.78;;
69621;SDS011;56841;55.964;37.674;2023-02-28T07:03:34;5.80;;;2.92;;
69621;SDS011;56841;55.964;37.674;2023-02-28T07:06:01;6.53;;;3.47;;
69621;SDS011;56841;55.964;37.674;2023-02-28T07:08:27;6.18;;;3.42;;
69621;SDS011;56841;55.964;37.674;2023-02-28T07:10:54;8.60;;;3.65;;
69621;SDS011;56841;55.964;37.674;2023-02-28T07:13:21;5.90;;;2.15;;
69621;SDS011;56841;55.964;37.674;2023-02-28T07:15:53;7.07;;;3.20;;
69621;SDS011;56841;55.964;37.674;2023-02-28T07:18:20;9.52;;;3.55;;
69621;SDS011;56841;55.964;37.674;2023-02-28T07:20:46;7.50;;;3.38;;
69621;SDS011;56841;55.964;37.674;2023-02-28T07:23:12;7.35;;;3.38;;
69621;SDS011;56841;55.964;37.674;2023-02-28T07:25:37;7.32;;;3.58;;
69621;SDS011;56841;55.964;37.674;2023-02-28T07:28:03;6.80;;;3.13;;
69621;SDS011;56841;55.964;37.674;2023-02-28T07:30:29;5.63;;;2.53;;
69621;SDS011;56841;55.964;37.674;2023-02-28T07:32:55;5.13;;;2.33;;
69621;SDS011;56841;55.964;37.674;2023-02-28T07:35:21;6.55;;;3.17;;
69621;SDS011;56841;55.964;37.674;2023-02-28T07:37:47;3.13;;;1.25;;
69621;SDS011;56841;55.964;37.674;2023-02-28T07:40:13;6.13;;;2.28;;
69621;SDS011;56841;55.964;37.674;2023-02-28T07:42:40;8.50;;;2.92;;
69621;SDS011;56841;55.964;37.674;2023-02-28T07:45:08;5.65;;;2.60;;
69621;SDS011;56841;55.964;37.674;2023-02-28T07:47:37;6.40;;;2.63;;
69621;SDS011;56841;55.964;37.674;2023-02-28T07:50:05;6.03;;;2.65;;
69621;SDS011;56841;55.964;37.674;2023-02-28T07:52:32;6.00;;;2.25;;
69621;SDS011;56841;55.964;37.674;2023-02-28T07:54:57;6.93;;;2.92;;
69621;SDS011;56841;55.964;37.674;2023-02-28T07:59:49;4.88;;;1.92;;
69621;SDS011;56841;55.964;37.674;2023-02-28T08:02:15;4.22;;;1.52;;
69621;SDS011;56841;55.964;37.674;2023-02-28T08:04:42;4.55;;;1.70;;
69621;SDS011;56841;55.964;37.674;2023-02-28T08:07:09;6.03;;;2.58;;
69621;SDS011;56841;55.964;37.674;2023-02-28T08:09:41;7.05;;;2.92;;
69621;SDS011;56841;55.964;37.674;2023-02-28T08:12:07;6.50;;;2.55;;
69621;SDS011;56841;55.964;37.674;2023-02-28T08:14:34;3.28;;;1.42;;
69621;SDS011;56841;55.964;37.674;2023-02-28T08:17:00;5.78;;;2.85;;
69621;SDS011;56841;55.964;37.674;2023-02-28T08:19:26;4.53;;;1.73;;
69621;SDS011;56841;55.964;37.674;2023-02-28T08:21:53;5.78;;;2.08;;
69621;SDS011;56841;55.964;37.674;2023-02-28T08:24:18;4.38;;;1.70;;
69621;SDS011;56841;55.964;37.674;2023-02-28T08:26:44;5.30;;;2.25;;
69621;SDS011;56841;55.964;37.674;2023-02-28T08:31:36;6.88;;;3.20;;
69621;SDS011;56841;55.964;37.674;2023-02-28T08:36:32;6.45;;;2.63;;
69621;SDS011;56841;55.964;37.674;2023-02-28T08:38:58;4.50;;;2.13;;
69621;SDS011;56841;55.964;37.674;2023-02-28T08:41:25;7.15;;;2.65;;
69621;SDS011;56841;55.964;37.674;2023-02-28T08:43:51;5.60;;;2.38;;
69621;SDS011;56841;55.964;37.674;2023-02-28T08:46:19;7.72;;;2.70;;
69621;SDS011;56841;55.964;37.674;2023-02-28T08:48:45;5.72;;;1.75;;
69621;SDS011;56841;55.964;37.674;2023-02-28T08:51:15;7.97;;;3.38;;
69621;SDS011;56841;55.964;37.674;2023-02-28T08:53:44;4.30;;;2.08;;
69621;SDS011;56841;55.964;37.674;2023-02-28T08:56:12;9.05;;;3.30;;
69621;SDS011;56841;55.964;37.674;2023-02-28T08:58:39;6.13;;;2.50;;
69621;SDS011;56841;55.964;37.674;2023-02-28T09:01:09;6.22;;;2.05;;
69621;SDS011;56841;55.964;37.674;2023-02-28T09:03:37;6.25;;;2.33;;
69621;SDS011;56841;55.964;37.674;2023-02-28T09:06:04;5.55;;;2.20;;
69621;SDS011;56841;55.964;37.674;2023-02-28T09:08:30;5.45;;;2.63;;
69621;SDS011;56841;55.964;37.674;2023-02-28T09:10:57;5.90;;;2.33;;
69621;SDS011;56841;55.964;37.674;2023-02-28T09:13:24;6.30;;;3.15;;
69621;SDS011;56841;55.964;37.674;2023-02-28T09:15:52;5.72;;;2.50;;
69621;SDS011;56841;55.964;37.674;2023-02-28T09:18:18;5.55;;;2.80;;
69621;SDS011;56841;55.964;37.674;2023-02-28T09:23:11;4.35;;;1.70;;
69621;SDS011;56841;55.964;37.674;2023-02-28T09:25:37;5.70;;;2.45;;
69621;SDS011;56841;55.964;37.674;2023-02-28T09:28:13;5.10;;;2.13;;
69621;SDS011;56841;55.964;37.674;2023-02-28T09:30:42;6.68;;;2.13;;
69621;SDS011;56841;55.964;37.674;2023-02-28T09:33:09;9.13;;;3.95;;
69621;SDS011;56841;55.964;37.674;2023-02-28T09:35:35;5.85;;;2.20;;
69621;SDS011;56841;55.964;37.674;2023-02-28T09:38:03;6.15;;;2.75;;
69621;SDS011;56841;55.964;37.674;2023-02-28T09:40:29;6.00;;;2.53;;
69621;SDS011;56841;55.964;37.674;2023-02-28T09:42:57;5.90;;;2.35;;
69621;SDS011;56841;55.964;37.674;2023-02-28T09:45:38;5.93;;;2.63;;
69621;SDS011;56841;55.964;37.674;2023-02-28T09:48:10;5.95;;;2.95;;
69621;SDS011;56841;55.964;37.674;2023-02-28T09:50:53;6.78;;;2.80;;
69621;SDS011;56841;55.964;37.674;2023-02-28T09:53:28;5.25;;;2.47;;
69621;SDS011;56841;55.964;37.674;2023-02-28T09:56:10;8.07;;;3.25;;
69621;SDS011;56841;55.964;37.674;2023-02-28T09:59:01;4.70;;;2.47;;
69621;SDS011;56841;55.964;37.674;2023-02-28T10:06:59;7.22;;;3.40;;
69621;SDS011;56841;55.964;37.674;2023-02-28T10:09:31;6.60;;;2.65;;
69621;SDS011;56841;55.964;37.674;2023-02-28T10:12:00;5.80;;;2.13;;
69621;SDS011;56841;55.964;37.674;2023-02-28T10:14:31;5.43;;;2.72;;
69621;SDS011;56841;55.964;37.674;2023-02-28T10:17:00;5.43;;;2.65;;
69621;SDS011;56841;55.964;37.674;2023-02-28T10:22:14;7.68;;;3.05;;
69621;SDS011;56841;55.964;37.674;2023-02-28T10:29:48;5.32;;;1.70;;
69621;SDS011;56841;55.964;37.674;2023-02-28T10:32:20;10.23;;;2.90;;
69621;SDS011;56841;55.964;37.674;2023-02-28T10:34:59;6.32;;;3.25;;
69621;SDS011;56841;55.964;37.674;2023-02-28T10:37:31;6.60;;;3.22;;
69621;SDS011;56841;55.964;37.674;2023-02-28T10:45:07;6.63;;;2.95;;
69621;SDS011;56841;55.964;37.674;2023-02-28T10:47:41;6.32;;;2.38;;
69621;SDS011;56841;55.964;37.674;2023-02-28T10:56:02;6.95;;;2.55;;
69621;SDS011;56841;55.964;37.674;2023-02-28T11:01:14;7.47;;;2.78;;
69621;SDS011;56841;55.964;37.674;2023-02-28T11:03:44;5.68;;;1.83;;
69621;SDS011;56841;55.964;37.674;2023-02-28T11:08:44;7.32;;;3.10;;
69621;SDS011;56841;55.964;37.674;2023-02-28T11:11:12;6.90;;;2.95;;
69621;SDS011;56841;55.964;37.674;2023-02-28T11:13:39;7.18;;;3.47;;
69621;SDS011;56841;55.964;37.674;2023-02-28T11:16:06;8.88;;;3.40;;
69621;SDS011;56841;55.964;37.674;2023-02-28T11:18:42;10.32;;;4.75;;
69621;SDS011;56841;55.964;37.674;2023-02-28T11:21:24;8.50;;;3.63;;
69621;SDS011;56841;55.964;37.674;2023-02-28T11:23:53;8.07;;;3.80;;
69621;SDS011;56841;55.964;37.674;2023-02-28T11:26:36;7.10;;;2.35;;
69621;SDS011;56841;55.964;37.674;2023-02-28T11:29:17;5.30;;;2.38;;
69621;SDS011;56841;55.964;37.674;2023-02-28T11:34:34;6.97;;;2.83;;
69621;SDS011;56841;55.964;37.674;2023-02-28T11:37:03;5.82;;;2.25;;
69621;SDS011;56841;55.964;37.674;2023-02-28T11:39:31;7.53;;;3.70;;
69621;SDS011;56841;55.964;37.674;2023-02-28T11:50:04;6.57;;;2.85;;
69621;SDS011;56841;55.964;37.674;2023-02-28T11:58:03;6.97;;;3.47;;
69621;SDS011;56841;55.964;37.674;2023-02-28T12:29:02;8.95;;;3.55;;
69621;SDS011;56841;55.964;37.674;2023-02-28T12:31:32;7.40;;;3.05;;
69621;SDS011;56841;55.964;37.674;2023-02-28T12:34:12;5.93;;;2.80;;
69621;SDS011;56841;55.964;37.674;2023-02-28T12:36:43;5.15;;;2.70;;
69621;SDS011;56841;55.964;37.674;2023-02-28T12:39:13;7.63;;;2.83;;
69621;SDS011;56841;55.964;37.674;2023-02-28T12:42:01;5.35;;;2.15;;
69621;SDS011;56841;55.964;37.674;2023-02-28T12:44:44;7.00;;;3.10;;
69621;SDS011;56841;55.964;37.674;2023-02-28T12:47:16;5.93;;;2.55;;
69621;SDS011;56841;55.964;37.674;2023-02-28T12:49:48;5.18;;;2.58;;
69621;SDS011;56841;55.964;37.674;2023-02-28T12:52:20;7.15;;;2.08;;
69621;SDS011;56841;55.964;37.674;2023-02-28T12:55:08;4.70;;;1.88;;
69621;SDS011;56841;55.964;37.674;2023-02-28T12:57:49;6.95;;;2.88;;
69621;SDS011;56841;55.964;37.674;2023-02-28T13:00:29;7.43;;;2.75;;
69621;SDS011;56841;55.964;37.674;2023-02-28T13:11:25;6.20;;;3.22;;
69621;SDS011;56841;55.964;37.674;2023-02-28T13:13:59;4.45;;;1.92;;
69621;SDS011;56841;55.964;37.674;2023-02-28T13:16:28;5.15;;;2.33;;
69621;SDS011;56841;55.964;37.674;2023-02-28T13:19:15;5.78;;;2.15;;
69621;SDS011;56841;55.964;37.674;2023-02-28T13:21:44;5.32;;;2.85;;
69621;SDS011;56841;55.964;37.674;2023-02-28T13:24:10;6.15;;;2.08;;
69621;SDS011;56841;55.964;37.674;2023-02-28T13:29:28;6.00;;;2.60;;
69621;SDS011;56841;55.964;37.674;2023-02-28T13:34:28;6.03;;;2.25;;
69621;SDS011;56841;55.964;37.674;2023-02-28T13:47:29;6.00;;;2.65;;
69621;SDS011;56841;55.964;37.674;2023-02-28T14:06:35;8.02;;;2.90;;
69621;SDS011;56841;55.964;37.674;2023-02-28T14:17:13;6.15;;;1.95;;
69621;SDS011;56841;55.964;37.674;2023-02-28T14:19:45;4.65;;;1.92;;
69621;SDS011;56841;55.964;37.674;2023-02-28T14:35:54;3.85;;;1.70;;
69621;SDS011;56841;55.964;37.674;2023-02-28T14:41:47;5.72;;;2.88;;
69621;SDS011;56841;55.964;37.674;2023-02-28T14:46:39;6.05;;;2.45;;
69621;SDS011;56841;55.964;37.674;2023-02-28T14:49:12;4.63;;;2.13;;
69621;SDS011;56841;55.964;37.674;2023-02-28T14:51:43;4.75;;;2.33;;
69621;SDS011;56841;55.964;37.674;2023-02-28T14:54:12;5.15;;;2.63;;
69621;SDS011;56841;55.964;37.674;2023-02-28T14:56:40;4.05;;;2.17;;
69621;SDS011;56841;55.964;37.674;2023-02-28T15:01:48;5.65;;;2.20;;
69621;SDS011;56841;55.964;37.674;2023-02-28T15:06:46;4.75;;;1.98;;
69621;SDS011;56841;55.964;37.674;2023-02-28T15:09:32;6.57;;;2.22;;
69621;SDS011;56841;55.964;37.674;2023-02-28T15:14:24;5.10;;;2.42;;
69621;SDS011;56841;55.964;37.674;2023-02-28T15:16:58;5.38;;;2.35;;
69621;SDS011;56841;55.964;37.674;2023-02-28T15:19:29;7.45;;;3.42;;
69621;SDS011;56841;55.964;37.674;2023-02-28T15:22:03;6.28;;;2.67;;
69621;SDS011;56841;55.964;37.674;2023-02-28T15:24:50;6.75;;;2.72;;
69621;SDS011;56841;55.964;37.674;2023-02-28T15:29:57;7.47;;;3.55;;
69621;SDS011;56841;55.964;37.674;2023-02-28T15:34:55;9.25;;;3.22;;
69621;SDS011;56841;55.964;37.674;2023-02-28T15:39:56;8.32;;;3.63;;
69621;SDS011;56841;55.964;37.674;2023-02-28T15:42:29;5.28;;;2.15;;
69621;SDS011;56841;55.964;37.674;2023-02-28T15:44:56;11.55;;;4.45;;
69621;SDS011;56841;55.964;37.674;2023-02-28T15:47:24;5.55;;;2.65;;
69621;SDS011;56841;55.964;37.674;2023-02-28T15:49:54;6.32;;;2.10;;
69621;SDS011;56841;55.964;37.674;2023-02-28T15:54:58;5.95;;;2.95;;
69621;SDS011;56841;55.964;37.674;2023-02-28T15:57:32;6.90;;;3.30;;
69621;SDS011;56841;55.964;37.674;2023-02-28T16:02:37;8.40;;;2.83;;
69621;SDS011;56841;55.964;37.674;2023-02-28T16:07:36;5.93;;;2.53;;
69621;SDS011;56841;55.964;37.674;2023-02-28T16:10:07;5.60;;;2.08;;
69621;SDS011;56841;55.964;37.674;2023-02-28T16:12:35;10.80;;;4.45;;
69621;SDS011;56841;55.964;37.674;2023-02-28T16:15:06;5.60;;;2.28;;
69621;SDS011;56841;55.964;37.674;2023-02-28T16:17:44;6.35;;;3.03;;
69621;SDS011;56841;55.964;37.674;2023-02-28T16:20:12;7.47;;;3.08;;
69621;SDS011;56841;55.964;37.674;2023-02-28T16:22:39;5.78;;;2.70;;
69621;SDS011;56841;55.964;37.674;2023-02-28T16:27:35;4.18;;;1.83;;
69621;SDS011;56841;55.964;37.674;2023-02-28T16:30:03;6.53;;;2.40;;
69621;SDS011;56841;55.964;37.674;2023-02-28T16:32:31;5.35;;;2.70;;
69621;SDS011;56841;55.964;37.674;2023-02-28T16:35:01;7.45;;;3.33;;
69621;SDS011;56841;55.964;37.674;2023-02-28T16:37:28;6.95;;;2.35;;
69621;SDS011;56841;55.964;37.674;2023-02-28T16:39:54;6.13;;;2.63;;
69621;SDS011;56841;55.964;37.674;2023-02-28T16:44:48;8.27;;;3.65;;
69621;SDS011;56841;55.964;37.674;2023-02-28T16:47:14;7.57;;;2.72;;
69621;SDS011;56841;55.964;37.674;2023-02-28T16:49:42;6.97;;;3.35;;
69621;SDS011;56841;55.964;37.674;2023-02-28T16:52:09;6.28;;;2.50;;
69621;SDS011;56841;55.964;37.674;2023-02-28T16:54:37;6.97;;;2.90;;
69621;SDS011;56841;55.964;37.674;2023-02-28T16:57:04;4.07;;;1.60;;
69621;SDS011;56841;55.964;37.674;2023-02-28T16:59:31;2.22;;;0.70;;
69621;SDS011;56841;55.964;37.674;2023-02-28T17:01:58;1.13;;;0.30;;
69621;SDS011;56841;55.964;37.674;2023-02-28T17:06:52;2.42;;;0.73;;
69621;SDS011;56841;55.964;37.674;2023-02-28T17:09:20;2.42;;;1.00;;
69621;SDS011;56841;55.964;37.674;2023-02-28T17:11:48;2.13;;;0.60;;
69621;SDS011;56841;55.964;37.674;2023-02-28T17:14:14;2.47;;;0.40;;
69621;SDS011;56841;55.964;37.674;2023-02-28T17:16:40;2.03;;;0.60;;
69621;SDS011;56841;55.964;37.674;2023-02-28T17:19:14;4.72;;;0.45;;
69621;SDS011;56841;55.964;37.674;2023-02-28T17:21:42;1.05;;;0.40;;
69621;SDS011;56841;55.964;37.674;2023-02-28T17:24:08;1.30;;;0.40;;
69621;SDS011;56841;55.964;37.674;2023-02-28T17:26:38;2.58;;;0.40;;
69621;SDS011;56841;55.964;37.674;2023-02-28T17:29:16;1.25;;;0.32;;
69621;SDS011;56841;55.964;37.674;2023-02-28T17:31:43;2.72;;;0.43;;
69621;SDS011;56841;55.964;37.674;2023-02-28T17:36:35;1.02;;;0.35;;
69621;SDS011;56841;55.964;37.674;2023-02-28T17:39:03;0.40;;;0.20;;
69621;SDS011;56841;55.964;37.674;2023-02-28T17:41:29;1.05;;;0.40;;
69621;SDS011;56841;55.964;37.674;2023-02-28T17:46:22;2.33;;;0.43;;
69621;SDS011;56841;55.964;37.674;2023-02-28T17:48:50;3.63;;;0.80;;
69621;SDS011;56841;55.964;37.674;2023-02-28T17:51:18;1.70;;;0.50;;
69621;SDS011;56841;55.964;37.674;2023-02-28T17:56:22;3.10;;;0.80;;
69621;SDS011;56841;55.964;37.674;2023-02-28T17:58:50;3.28;;;0.32;;
69621;SDS011;56841;55.964;37.674;2023-02-28T18:01:17;4.03;;;0.70;;
69621;SDS011;56841;55.964;37.674;2023-02-28T18:03:45;3.65;;;1.00;;
69621;SDS011;56841;55.964;37.674;2023-02-28T18:08:53;5.20;;;0.57;;
69621;SDS011;56841;55.964;37.674;2023-02-28T18:13:45;2.25;;;0.70;;
69621;SDS011;56841;55.964;37.674;2023-02-28T18:16:17;2.80;;;0.60;;
69621;SDS011;56841;55.964;37.674;2023-02-28T18:18:44;1.38;;;0.20;;
69621;SDS011;56841;55.964;37.674;2023-02-28T18:21:11;1.27;;;0.32;;
69621;SDS011;56841;55.964;37.674;2023-02-28T18:23:39;0.68;;;0.28;;
69621;SDS011;56841;55.964;37.674;2023-02-28T18:26:17;1.55;;;0.43;;
69621;SDS011;56841;55.964;37.674;2023-02-28T18:28:44;1.95;;;0.40;;
69621;SDS011;56841;55.964;37.674;2023-02-28T18:31:12;0.82;;;0.40;;
69621;SDS011;56841;55.964;37.674;2023-02-28T18:33:41;1.55;;;0.30;;
69621;SDS011;56841;55.964;37.674;2023-02-28T18:36:09;1.35;;;0.30;;
69621;SDS011;56841;55.964;37.674;2023-02-28T18:38:36;2.55;;;0.60;;
69621;SDS011;56841;55.964;37.674;2023-02-28T18:43:31;2.90;;;0.47;;
69621;SDS011;56841;55.964;37.674;2023-02-28T18:46:02;0.90;;;0.32;;
69621;SDS011;56841;55.964;37.674;2023-02-28T18:51:06;2.67;;;0.30;;
69621;SDS011;56841;55.964;37.674;2023-02-28T18:53:34;2.28;;;0.65;;
69621;SDS011;56841;55.964;37.674;2023-02-28T18:56:01;1.10;;;0.30;;
69621;SDS011;56841;55.964;37.674;2023-02-28T18:58:27;0.73;;;0.30;;
69621;SDS011;56841;55.964;37.674;2023-02-28T19:03:19;0.85;;;0.35;;
69621;SDS011;56841;55.964;37.674;2023-02-28T19:05:45;1.95;;;0.22;;